createdAt,value
2017-03-25T00:00:19.222Z,1010.75
2017-03-25T00:01:29.266Z,1010.72
2017-03-25T00:02:39.617Z,1010.75
2017-03-25T00:03:49.634Z,1010.73
2017-03-25T00:04:59.975Z,1010.75
2017-03-25T00:06:10.314Z,1010.7
2017-03-25T00:07:20.350Z,1010.73
2017-03-25T00:08:30.392Z,1010.7
2017-03-25T00:09:40.458Z,1010.69
2017-03-25T00:10:50.222Z,1010.7
2017-03-25T00:12:00.580Z,1010.69
2017-03-25T00:13:10.978Z,1010.67
2017-03-25T00:14:21.332Z,1010.67
2017-03-25T00:15:31.374Z,1010.68
2017-03-25T00:16:41.712Z,1010.71
2017-03-25T00:17:52.055Z,1010.68
2017-03-25T00:19:02.427Z,1010.69
2017-03-25T00:20:12.779Z,1010.68
2017-03-25T00:21:23.134Z,1010.68
2017-03-25T00:22:33.493Z,1010.68
2017-03-25T00:23:43.828Z,1010.67
2017-03-25T00:24:53.859Z,1010.69
2017-03-25T00:26:03.896Z,1010.66
2017-03-25T00:27:13.930Z,1010.64
2017-03-25T00:28:24.273Z,1010.6
2017-03-25T00:29:34.303Z,1010.6
2017-03-25T00:30:44.659Z,1010.61
2017-03-25T00:31:54.699Z,1010.61
2017-03-25T00:33:05.029Z,1010.63
2017-03-25T00:34:15.054Z,1010.64
2017-03-25T00:35:25.405Z,1010.58
2017-03-25T00:36:35.766Z,1010.61
2017-03-25T00:37:45.801Z,1010.61
2017-03-25T00:38:55.831Z,1010.62
2017-03-25T00:40:05.565Z,1010.63
2017-03-25T00:41:15.910Z,1010.6
2017-03-25T00:42:25.625Z,1010.62
2017-03-25T00:43:35.668Z,1010.57
2017-03-25T00:44:46.256Z,1010.6
2017-03-25T00:45:56.640Z,1010.58
2017-03-25T00:47:07.003Z,1010.55
2017-03-25T00:48:16.414Z,1010.54
2017-03-25T00:49:26.482Z,1010.49
2017-03-25T00:50:36.806Z,1010.48
2017-03-25T00:51:47.119Z,1010.49
2017-03-25T00:52:57.457Z,1010.48
2017-03-25T00:54:06.860Z,1010.51
2017-03-25T00:55:17.202Z,1010.48
2017-03-25T00:56:27.552Z,1010.47
2017-03-25T00:57:37.897Z,1010.44
2017-03-25T00:58:48.238Z,1010.43
2017-03-25T00:59:58.262Z,1010.4
2017-03-25T01:01:08.600Z,1010.43
2017-03-25T01:02:18.960Z,1010.43
2017-03-25T01:03:29.006Z,1010.41
2017-03-25T01:04:39.026Z,1010.39
2017-03-25T01:05:49.063Z,1010.42
2017-03-25T01:06:59.082Z,1010.4
2017-03-25T01:08:09.095Z,1010.43
2017-03-25T01:09:19.416Z,1010.41
2017-03-25T01:10:29.423Z,1010.41
2017-03-25T01:11:39.755Z,1010.43
2017-03-25T01:12:50.086Z,1010.44
2017-03-25T01:14:00.123Z,1010.43
2017-03-25T01:15:10.445Z,1010.42
2017-03-25T01:16:20.792Z,1010.4
2017-03-25T01:17:31.125Z,1010.35
2017-03-25T01:18:41.161Z,1010.33
2017-03-25T01:19:51.521Z,1010.32
2017-03-25T01:21:01.548Z,1010.34
2017-03-25T01:22:11.565Z,1010.3
2017-03-25T01:23:21.894Z,1010.3
2017-03-25T01:24:31.914Z,1010.32
2017-03-25T01:25:41.927Z,1010.34
2017-03-25T01:26:51.967Z,1010.35
2017-03-25T01:28:02.358Z,1010.31
2017-03-25T01:29:12.718Z,1010.35
2017-03-25T01:30:23.053Z,1010.33
2017-03-25T01:31:33.379Z,1010.33
2017-03-25T01:32:43.074Z,1010.31
2017-03-25T01:33:53.388Z,1010.34
2017-03-25T01:35:03.422Z,1010.33
2017-03-25T01:36:13.442Z,1010.31
2017-03-25T01:37:23.771Z,1010.31
2017-03-25T01:38:34.104Z,1010.27
2017-03-25T01:39:44.432Z,1010.32
2017-03-25T01:40:54.755Z,1010.37
2017-03-25T01:42:05.114Z,1010.34
2017-03-25T01:43:15.430Z,1010.36
2017-03-25T01:44:25.757Z,1010.31
2017-03-25T01:45:36.124Z,1010.32
2017-03-25T01:46:46.468Z,1010.3
2017-03-25T01:47:56.797Z,1010.3
2017-03-25T01:49:06.811Z,1010.32
2017-03-25T01:50:16.835Z,1010.31
2017-03-25T01:51:26.549Z,1010.29
2017-03-25T01:52:36.870Z,1010.31
2017-03-25T01:53:47.207Z,1010.35
2017-03-25T01:54:57.557Z,1010.37
2017-03-25T01:56:07.894Z,1010.33
2017-03-25T01:57:18.221Z,1010.36
2017-03-25T01:58:28.233Z,1010.31
2017-03-25T01:59:37.982Z,1010.35
2017-03-25T02:00:47.681Z,1010.33
2017-03-25T02:01:58.009Z,1010.34
2017-03-25T02:03:08.337Z,1010.32
2017-03-25T02:04:18.671Z,1010.36
2017-03-25T02:05:29.033Z,1010.35
2017-03-25T02:06:38.739Z,1010.3
2017-03-25T02:07:48.756Z,1010.25
2017-03-25T02:08:59.094Z,1010.26
2017-03-25T02:10:09.483Z,1010.23
2017-03-25T02:11:19.497Z,1010.17
2017-03-25T02:12:29.848Z,1010.21
2017-03-25T02:13:39.561Z,1010.21
2017-03-25T02:14:49.929Z,1010.16
2017-03-25T02:15:59.961Z,1010.18
2017-03-25T02:17:10.282Z,1010.16
2017-03-25T02:18:20.632Z,1010.18
2017-03-25T02:19:30.964Z,1010.16
2017-03-25T02:20:41.313Z,1010.16
2017-03-25T02:21:51.332Z,1010.2
2017-03-25T02:23:01.332Z,1010.19
2017-03-25T02:24:11.661Z,1010.17
2017-03-25T02:25:21.352Z,1010.17
2017-03-25T02:26:31.090Z,1010.11
2017-03-25T02:27:41.438Z,1010.14
2017-03-25T02:28:51.131Z,1010.11
2017-03-25T02:30:01.464Z,1010.16
2017-03-25T02:31:11.485Z,1010.13
2017-03-25T02:32:21.800Z,1010.14
2017-03-25T02:33:31.815Z,1010.14
2017-03-25T02:34:41.841Z,1010.14
2017-03-25T02:35:52.162Z,1010.12
2017-03-25T02:37:02.493Z,1010.14
2017-03-25T02:38:12.517Z,1010.14
2017-03-25T02:39:22.846Z,1010.12
2017-03-25T02:40:32.876Z,1010.1
2017-03-25T02:41:42.901Z,1010.1
2017-03-25T02:42:53.237Z,1010.09
2017-03-25T02:44:03.583Z,1010.08
2017-03-25T02:45:13.914Z,1010.08
2017-03-25T02:46:24.262Z,1010.09
2017-03-25T02:47:34.597Z,1010.06
2017-03-25T02:48:44.927Z,1010.05
2017-03-25T02:49:55.263Z,1010.11
2017-03-25T02:51:05.605Z,1010.08
2017-03-25T02:52:15.942Z,1010.1
2017-03-25T02:53:26.300Z,1010.06
2017-03-25T02:54:36.642Z,1010.06
2017-03-25T02:55:46.990Z,1010.06
2017-03-25T02:56:57.021Z,1010.05
2017-03-25T02:58:07.056Z,1010.02
2017-03-25T02:59:17.402Z,1010.04
2017-03-25T03:00:27.742Z,1010.02
2017-03-25T03:32:07.986Z,1009.94
2017-03-25T03:33:17.372Z,1009.89
2017-03-25T03:34:27.081Z,1009.95
2017-03-25T03:35:37.453Z,1009.99
2017-03-25T03:36:47.156Z,1009.97
2017-03-25T03:37:57.493Z,1009.97
2017-03-25T03:39:07.844Z,1010
2017-03-25T03:40:17.875Z,1009.95
2017-03-25T03:41:27.899Z,1009.92
2017-03-25T03:42:37.917Z,1009.87
2017-03-25T03:43:47.933Z,1009.85
2017-03-25T03:44:58.271Z,1009.83
2017-03-25T03:46:08.312Z,1009.83
2017-03-25T03:47:18.648Z,1009.86
2017-03-25T03:48:28.666Z,1009.82
2017-03-25T03:49:39.008Z,1009.83
2017-03-25T03:50:49.349Z,1009.78
2017-03-25T03:51:59.383Z,1009.76
2017-03-25T03:53:09.720Z,1009.76
2017-03-25T03:54:20.051Z,1009.77
2017-03-25T03:55:30.074Z,1009.75
2017-03-25T03:56:40.088Z,1009.78
2017-03-25T03:57:50.110Z,1009.73
2017-03-25T03:59:00.138Z,1009.8
2017-03-25T04:00:10.176Z,1009.75
2017-03-25T04:01:20.522Z,1009.74
2017-03-25T04:02:30.886Z,1009.77
2017-03-25T04:03:40.909Z,1009.78
2017-03-25T04:04:51.248Z,1009.78
2017-03-25T04:06:01.594Z,1009.78
2017-03-25T04:07:11.631Z,1009.8
2017-03-25T04:08:21.964Z,1009.78
2017-03-25T04:09:31.700Z,1009.85
2017-03-25T04:10:42.058Z,1009.89
2017-03-25T04:11:52.076Z,1009.88
2017-03-25T04:13:02.406Z,1009.86
2017-03-25T04:14:12.433Z,1009.83
2017-03-25T04:15:22.479Z,1009.84
2017-03-25T04:16:32.860Z,1009.87
2017-03-25T04:17:43.220Z,1009.81
2017-03-25T04:18:53.261Z,1009.83
2017-03-25T04:20:03.526Z,1009.84
2017-03-25T04:21:13.872Z,1009.84
2017-03-25T04:22:23.905Z,1009.85
2017-03-25T04:23:34.235Z,1009.81
2017-03-25T04:24:44.578Z,1009.8
2017-03-25T04:25:54.590Z,1009.78
2017-03-25T04:27:04.932Z,1009.76
2017-03-25T04:28:14.978Z,1009.78
2017-03-25T04:29:25.317Z,1009.81
2017-03-25T04:30:35.637Z,1009.81
2017-03-25T04:31:45.655Z,1009.84
2017-03-25T04:32:55.991Z,1009.84
2017-03-25T04:34:06.024Z,1009.82
2017-03-25T04:35:16.374Z,1009.81
2017-03-25T04:36:26.705Z,1009.85
2017-03-25T04:37:36.733Z,1009.85
2017-03-25T04:38:46.757Z,1009.82
2017-03-25T04:39:57.097Z,1009.88
2017-03-25T04:41:07.161Z,1009.85
2017-03-25T04:42:17.503Z,1009.82
2017-03-25T04:43:27.520Z,1009.86
2017-03-25T04:44:37.864Z,1009.88
2017-03-25T04:45:47.874Z,1009.92
2017-03-25T04:46:57.905Z,1009.92
2017-03-25T04:48:08.238Z,1009.94
2017-03-25T04:49:18.268Z,1009.95
2017-03-25T04:50:28.606Z,1009.97
2017-03-25T04:51:38.618Z,1009.95
2017-03-25T04:52:48.974Z,1009.93
2017-03-25T04:53:59.316Z,1009.98
2017-03-25T04:55:09.337Z,1009.96
2017-03-25T04:56:19.359Z,1010.03
2017-03-25T04:57:29.670Z,1009.94
2017-03-25T04:58:39.691Z,1009.91
2017-03-25T04:59:50.024Z,1009.93
2017-03-25T05:01:00.352Z,1009.97
2017-03-25T05:02:10.691Z,1009.94
2017-03-25T05:03:20.759Z,1009.94
2017-03-25T05:04:31.100Z,1009.93
2017-03-25T05:05:41.129Z,1009.9
2017-03-25T05:06:51.466Z,1009.91
2017-03-25T05:08:01.786Z,1009.9
2017-03-25T05:09:12.131Z,1009.92
2017-03-25T05:10:22.465Z,1009.9
2017-03-25T05:11:32.791Z,1009.92
2017-03-25T05:12:43.138Z,1009.91
2017-03-25T05:13:53.164Z,1009.91
2017-03-25T05:15:03.210Z,1009.9
2017-03-25T05:16:13.533Z,1009.97
2017-03-25T05:17:23.593Z,1010
2017-03-25T05:18:33.616Z,1010.04
2017-03-25T05:19:43.640Z,1010
2017-03-25T05:20:53.358Z,1010.04
2017-03-25T05:22:03.392Z,1010.04
2017-03-25T05:23:13.415Z,1010.08
2017-03-25T05:24:23.445Z,1010.08
2017-03-25T05:25:33.478Z,1010.09
2017-03-25T05:26:43.828Z,1010.1
2017-03-25T05:27:54.154Z,1010.11
2017-03-25T05:29:04.497Z,1010.08
2017-03-25T05:30:14.870Z,1010.04
2017-03-25T05:31:25.214Z,1010.07
2017-03-25T05:32:35.546Z,1010.03
2017-03-25T05:33:45.889Z,1009.99
2017-03-25T05:34:56.236Z,1010.01
2017-03-25T05:36:06.257Z,1010.05
2017-03-25T05:37:16.604Z,1010.04
2017-03-25T05:38:26.658Z,1010.04
2017-03-25T05:39:36.753Z,1010.04
2017-03-25T05:40:47.091Z,1010.03
2017-03-25T05:41:57.113Z,1010.03
2017-03-25T05:43:07.451Z,1010.03
2017-03-25T05:44:17.819Z,1010.04
2017-03-25T05:45:28.153Z,1010.1
2017-03-25T05:46:38.555Z,1010.08
2017-03-25T05:47:48.890Z,1010.12
2017-03-25T05:48:59.235Z,1010.12
2017-03-25T05:50:08.945Z,1010.12
2017-03-25T05:51:18.957Z,1010.09
2017-03-25T05:52:28.972Z,1010.12
2017-03-25T05:53:39.315Z,1010.15
2017-03-25T05:54:49.655Z,1010.2
2017-03-25T05:55:59.688Z,1010.21
2017-03-25T05:57:09.710Z,1010.22
2017-03-25T05:58:20.053Z,1010.22
2017-03-25T05:59:30.377Z,1010.25
2017-03-25T06:00:40.751Z,1010.22
2017-03-25T06:01:51.092Z,1010.21
2017-03-25T06:03:01.452Z,1010.24
2017-03-25T06:04:11.810Z,1010.22
2017-03-25T06:05:21.821Z,1010.2
2017-03-25T06:06:32.155Z,1010.21
2017-03-25T06:07:42.496Z,1010.16
2017-03-25T06:08:52.833Z,1010.15
2017-03-25T06:10:02.865Z,1010.17
2017-03-25T06:11:12.889Z,1010.16
2017-03-25T06:12:23.232Z,1010.16
2017-03-25T06:13:32.963Z,1010.15
2017-03-25T06:14:43.298Z,1010.15
2017-03-25T06:15:53.632Z,1010.18
2017-03-25T06:17:03.652Z,1010.18
2017-03-25T06:18:14.009Z,1010.19
2017-03-25T06:19:24.358Z,1010.22
2017-03-25T06:20:34.702Z,1010.22
2017-03-25T06:21:45.041Z,1010.23
2017-03-25T06:22:55.071Z,1010.24
2017-03-25T06:24:05.424Z,1010.25
2017-03-25T06:25:15.756Z,1010.27
2017-03-25T06:26:25.772Z,1010.3
2017-03-25T06:27:36.110Z,1010.23
2017-03-25T06:28:46.443Z,1010.22
2017-03-25T06:29:56.786Z,1010.22
2017-03-25T06:31:07.136Z,1010.19
2017-03-25T06:32:17.480Z,1010.22
2017-03-25T06:33:27.823Z,1010.19
2017-03-25T06:34:37.854Z,1010.21
2017-03-25T06:35:48.183Z,1010.24
2017-03-25T06:36:58.217Z,1010.23
2017-03-25T06:38:08.538Z,1010.24
2017-03-25T06:39:18.882Z,1010.24
2017-03-25T06:40:28.910Z,1010.24
2017-03-25T06:41:39.238Z,1010.28
2017-03-25T06:42:49.256Z,1010.24
2017-03-25T06:43:59.586Z,1010.24
2017-03-25T06:45:09.624Z,1010.2
2017-03-25T06:46:19.950Z,1010.2
2017-03-25T06:47:29.971Z,1010.18
2017-03-25T06:48:40.324Z,1010.13
2017-03-25T06:49:50.350Z,1010.16
2017-03-25T06:51:00.429Z,1010.17
2017-03-25T06:52:10.460Z,1010.19
2017-03-25T06:53:20.180Z,1010.25
2017-03-25T06:54:30.211Z,1010.27
2017-03-25T06:55:40.236Z,1010.34
2017-03-25T06:56:50.597Z,1010.21
2017-03-25T06:58:00.633Z,1010.26
2017-03-25T06:59:10.970Z,1010.26
2017-03-25T07:00:20.987Z,1010.24
2017-03-25T07:01:31.392Z,1010.22
2017-03-25T07:02:41.425Z,1010.29
2017-03-25T07:03:51.456Z,1010.31
2017-03-25T07:05:01.787Z,1010.29
2017-03-25T07:06:11.860Z,1010.32
2017-03-25T07:07:22.197Z,1010.32
2017-03-25T07:08:32.545Z,1010.31
2017-03-25T07:09:42.866Z,1010.28
2017-03-25T07:10:52.900Z,1010.25
2017-03-25T07:12:03.249Z,1010.25
2017-03-25T07:13:13.608Z,1010.29
2017-03-25T07:14:23.943Z,1010.25
2017-03-25T07:15:34.294Z,1010.21
2017-03-25T07:16:44.630Z,1010.2
2017-03-25T07:17:54.646Z,1010.21
2017-03-25T07:19:04.698Z,1010.25
2017-03-25T07:20:14.731Z,1010.28
2017-03-25T07:21:25.067Z,1010.31
2017-03-25T07:22:35.409Z,1010.28
2017-03-25T07:23:45.803Z,1010.28
2017-03-25T07:24:55.542Z,1010.25
2017-03-25T07:26:05.881Z,1010.24
2017-03-25T07:27:15.913Z,1010.21
2017-03-25T07:28:26.261Z,1010.26
2017-03-25T07:29:36.598Z,1010.26
2017-03-25T07:30:46.342Z,1010.25
2017-03-25T07:31:56.687Z,1010.31
2017-03-25T07:33:07.048Z,1010.26
2017-03-25T07:34:17.413Z,1010.22
2017-03-25T07:35:27.792Z,1010.23
2017-03-25T07:36:38.221Z,1010.26
2017-03-25T07:37:48.250Z,1010.23
2017-03-25T07:38:58.611Z,1010.24
2017-03-25T07:40:08.653Z,1010.21
2017-03-25T07:41:18.982Z,1010.22
2017-03-25T07:42:28.722Z,1010.28
2017-03-25T07:43:38.751Z,1010.25
2017-03-25T07:44:49.105Z,1010.26
2017-03-25T07:45:59.441Z,1010.29
2017-03-25T07:47:09.467Z,1010.3
2017-03-25T07:48:19.196Z,1010.35
2017-03-25T07:49:29.560Z,1010.29
2017-03-25T07:50:39.893Z,1010.33
2017-03-25T07:51:49.949Z,1010.32
2017-03-25T07:53:00.287Z,1010.29
2017-03-25T07:54:10.313Z,1010.3
2017-03-25T07:55:20.342Z,1010.26
2017-03-25T07:56:30.679Z,1010.29
2017-03-25T07:57:41.032Z,1010.24
2017-03-25T07:58:50.751Z,1010.25
2017-03-25T08:00:01.108Z,1010.26
2017-03-25T08:01:11.133Z,1010.22
2017-03-25T08:02:21.479Z,1010.21
2017-03-25T08:03:31.835Z,1010.23
2017-03-25T08:04:42.167Z,1010.27
2017-03-25T08:05:52.203Z,1010.27
2017-03-25T08:07:02.579Z,1010.26
2017-03-25T08:08:12.931Z,1010.27
2017-03-25T08:09:22.650Z,1010.3
2017-03-25T08:10:32.984Z,1010.32
2017-03-25T08:11:43.323Z,1010.34
2017-03-25T08:12:53.662Z,1010.32
2017-03-25T08:14:04.013Z,1010.32
2017-03-25T08:15:14.340Z,1010.34
2017-03-25T08:16:24.712Z,1010.32
2017-03-25T08:17:35.053Z,1010.36
2017-03-25T08:18:45.148Z,1010.36
2017-03-25T08:19:55.506Z,1010.35
2017-03-25T08:21:05.871Z,1010.36
2017-03-25T08:22:15.576Z,1010.33
2017-03-25T08:23:25.941Z,1010.33
2017-03-25T08:24:35.971Z,1010.33
2017-03-25T08:25:46.003Z,1010.33
2017-03-25T08:26:56.380Z,1010.32
2017-03-25T08:28:06.735Z,1010.35
2017-03-25T08:29:16.770Z,1010.34
2017-03-25T08:30:26.823Z,1010.35
2017-03-25T08:31:37.169Z,1010.36
2017-03-25T08:32:47.504Z,1010.33
2017-03-25T08:33:57.546Z,1010.35
2017-03-25T08:35:07.263Z,1010.32
2017-03-25T08:36:17.635Z,1010.35
2017-03-25T08:37:28.001Z,1010.34
2017-03-25T08:38:38.345Z,1010.33
2017-03-25T08:39:48.379Z,1010.36
2017-03-25T08:40:58.744Z,1010.33
2017-03-25T08:42:08.496Z,1010.35
2017-03-25T08:43:18.897Z,1010.34
2017-03-25T08:44:28.632Z,1010.34
2017-03-25T08:45:38.672Z,1010.3
2017-03-25T08:46:49.041Z,1010.32
2017-03-25T08:47:59.071Z,1010.3
2017-03-25T08:49:09.418Z,1010.26
2017-03-25T08:50:19.833Z,1010.28
2017-03-25T08:51:30.198Z,1010.28
2017-03-25T08:52:40.284Z,1010.33
2017-03-25T08:53:50.632Z,1010.27
2017-03-25T08:55:00.981Z,1010.36
2017-03-25T08:56:11.352Z,1010.3
2017-03-25T08:57:21.396Z,1010.29
2017-03-25T08:58:31.752Z,1010.27
2017-03-25T08:59:42.110Z,1010.31
2017-03-25T09:00:52.156Z,1010.25
2017-03-25T09:02:02.186Z,1010.25
2017-03-25T09:03:12.223Z,1010.23
2017-03-25T09:04:22.615Z,1010.21
2017-03-25T09:05:32.987Z,1010.2
2017-03-25T09:06:43.342Z,1010.14
2017-03-25T09:07:53.696Z,1010.13
2017-03-25T09:09:04.069Z,1010.12
2017-03-25T09:10:14.416Z,1010.1
2017-03-25T09:11:24.156Z,1010.14
2017-03-25T09:12:34.506Z,1010.16
2017-03-25T09:13:44.245Z,1010.11
2017-03-25T09:14:54.614Z,1010.13
2017-03-25T09:16:04.351Z,1010.14
2017-03-25T09:17:14.700Z,1010.12
2017-03-25T09:18:24.442Z,1010.1
2017-03-25T09:19:34.813Z,1010.08
2017-03-25T09:20:45.197Z,1010.03
2017-03-25T09:21:55.539Z,1010
2017-03-25T09:23:05.892Z,1010
2017-03-25T09:24:16.270Z,1009.98
2017-03-25T09:25:26.674Z,1009.93
2017-03-25T09:26:37.027Z,1009.91
2017-03-25T09:27:47.364Z,1009.91
2017-03-25T09:28:57.441Z,1009.87
2017-03-25T09:30:07.487Z,1009.83
2017-03-25T09:31:17.876Z,1009.78
2017-03-25T09:32:28.240Z,1009.79
2017-03-25T09:33:38.645Z,1009.77
2017-03-25T09:34:49.032Z,1009.78
2017-03-25T09:35:59.074Z,1009.75
2017-03-25T09:37:09.426Z,1009.73
2017-03-25T09:38:19.792Z,1009.64
2017-03-25T09:39:29.860Z,1009.63
2017-03-25T09:40:39.894Z,1009.66
2017-03-25T09:41:49.946Z,1009.67
2017-03-25T09:43:00.003Z,1009.62
2017-03-25T09:44:10.381Z,1009.66
2017-03-25T09:45:20.763Z,1009.68
2017-03-25T09:46:31.152Z,1009.7
2017-03-25T09:47:41.516Z,1009.65
2017-03-25T09:48:51.879Z,1009.7
2017-03-25T09:50:02.248Z,1009.63
2017-03-25T09:51:12.606Z,1009.6
2017-03-25T09:52:22.954Z,1009.62
2017-03-25T09:53:33.314Z,1009.57
2017-03-25T09:54:43.715Z,1009.51
2017-03-25T09:55:54.076Z,1009.54
2017-03-25T09:57:04.427Z,1009.51
2017-03-25T09:58:14.789Z,1009.51
2017-03-25T09:59:24.842Z,1009.48
2017-03-25T10:00:35.203Z,1009.46
2017-03-25T10:01:45.585Z,1009.43
2017-03-25T10:02:55.872Z,1009.4
2017-03-25T10:04:06.228Z,1009.43
2017-03-25T10:05:16.340Z,1009.4
2017-03-25T10:06:26.717Z,1009.37
2017-03-25T10:07:37.064Z,1009.36
2017-03-25T10:08:47.113Z,1009.34
2017-03-25T10:09:57.479Z,1009.37
2017-03-25T10:11:07.820Z,1009.29
2017-03-25T10:12:18.173Z,1009.33
2017-03-25T10:13:28.506Z,1009.34
2017-03-25T10:14:38.862Z,1009.36
2017-03-25T10:15:49.227Z,1009.37
2017-03-25T10:16:59.593Z,1009.34
2017-03-25T10:18:09.622Z,1009.35
2017-03-25T10:19:19.371Z,1009.33
2017-03-25T10:20:29.733Z,1009.34
2017-03-25T10:21:39.763Z,1009.32
2017-03-25T10:22:50.115Z,1009.26
2017-03-25T10:23:59.879Z,1009.27
2017-03-25T10:25:09.973Z,1009.27
2017-03-25T10:26:20.081Z,1009.21
2017-03-25T10:27:30.179Z,1009.15
2017-03-25T10:28:40.215Z,1009.17
2017-03-25T10:29:50.251Z,1009.11
2017-03-25T10:31:00.616Z,1009.12
2017-03-25T10:32:10.999Z,1009.13
2017-03-25T10:33:21.354Z,1009.12
2017-03-25T10:34:31.375Z,1009.06
2017-03-25T10:35:41.444Z,1009.09
2017-03-25T10:36:51.782Z,1009.02
2017-03-25T10:38:02.149Z,1009.05
2017-03-25T10:39:12.213Z,1009.03
2017-03-25T10:40:22.596Z,1008.99
2017-03-25T10:41:32.649Z,1009
2017-03-25T10:42:43.014Z,1009.01
2017-03-25T10:43:53.375Z,1008.98
2017-03-25T10:45:03.416Z,1008.95
2017-03-25T10:46:13.448Z,1008.91
2017-03-25T10:47:23.838Z,1008.88
2017-03-25T10:48:34.179Z,1008.86
2017-03-25T10:49:44.224Z,1008.85
2017-03-25T10:50:54.588Z,1008.86
2017-03-25T10:52:04.938Z,1008.85
2017-03-25T10:53:15.321Z,1008.77
2017-03-25T10:54:25.685Z,1008.76
2017-03-25T10:55:36.057Z,1008.77
2017-03-25T10:56:46.128Z,1008.73
2017-03-25T10:57:55.928Z,1008.72
2017-03-25T10:59:06.295Z,1008.75
2017-03-25T11:00:16.366Z,1008.73
2017-03-25T11:01:26.750Z,1008.74
2017-03-25T11:02:37.115Z,1008.69
2017-03-25T11:03:46.864Z,1008.67
2017-03-25T11:04:57.222Z,1008.66
2017-03-25T11:06:07.274Z,1008.63
2017-03-25T11:07:17.643Z,1008.63
2017-03-25T11:08:27.990Z,1008.61
2017-03-25T11:09:38.354Z,1008.6
2017-03-25T11:10:48.719Z,1008.59
2017-03-25T11:11:58.764Z,1008.57
2017-03-25T11:13:09.138Z,1008.54
2017-03-25T11:14:19.493Z,1008.54
2017-03-25T11:15:29.855Z,1008.47
2017-03-25T11:16:40.222Z,1008.45
2017-03-25T11:17:50.612Z,1008.4
2017-03-25T11:19:00.980Z,1008.41
2017-03-25T11:20:11.333Z,1008.39
2017-03-25T11:21:21.676Z,1008.34
2017-03-25T11:22:31.702Z,1008.37
2017-03-25T11:23:42.059Z,1008.34
2017-03-25T11:24:52.451Z,1008.27
2017-03-25T11:26:02.176Z,1008.26
2017-03-25T11:27:12.537Z,1008.22
2017-03-25T11:28:22.578Z,1008.17
2017-03-25T11:29:32.970Z,1008.12
2017-03-25T11:30:43.037Z,1008.13
2017-03-25T11:31:53.090Z,1008.12
2017-03-25T11:33:03.141Z,1008.08
2017-03-25T11:34:13.191Z,1008.07
2017-03-25T11:35:23.244Z,1007.98
2017-03-25T11:36:33.599Z,1007.98
2017-03-25T11:37:43.979Z,1007.96
2017-03-25T11:38:54.576Z,1007.94
2017-03-25T11:40:04.951Z,1007.95
2017-03-25T11:41:15.301Z,1007.94
2017-03-25T11:42:25.359Z,1007.95
2017-03-25T11:43:35.718Z,1007.92
2017-03-25T11:44:45.462Z,1007.87
2017-03-25T11:45:55.519Z,1007.88
2017-03-25T11:47:05.878Z,1007.86
2017-03-25T11:48:15.925Z,1007.78
2017-03-25T11:49:25.980Z,1007.85
2017-03-25T11:50:36.013Z,1007.81
2017-03-25T11:51:46.342Z,1007.79
2017-03-25T11:52:56.688Z,1007.77
2017-03-25T11:54:07.060Z,1007.78
2017-03-25T11:55:17.453Z,1007.73
2017-03-25T11:56:27.804Z,1007.64
2017-03-25T11:57:38.175Z,1007.67
2017-03-25T11:58:48.555Z,1007.66
2017-03-25T11:59:58.952Z,1007.67
2017-03-25T12:01:09.323Z,1007.61
2017-03-25T12:02:19.691Z,1007.57
2017-03-25T12:03:29.741Z,1007.55
2017-03-25T12:04:40.128Z,1007.57
2017-03-25T12:05:50.166Z,1007.5
2017-03-25T12:07:00.509Z,1007.51
2017-03-25T12:08:10.544Z,1007.46
2017-03-25T12:09:20.907Z,1007.42
2017-03-25T12:10:30.330Z,1007.45
2017-03-25T12:11:40.700Z,1007.54
2017-03-25T12:12:51.052Z,1007.47
2017-03-25T12:14:01.413Z,1007.43
2017-03-25T12:15:11.779Z,1007.44
2017-03-25T12:16:22.131Z,1007.41
2017-03-25T12:17:32.509Z,1007.37
2017-03-25T12:18:42.540Z,1007.38
2017-03-25T12:19:52.946Z,1007.31
2017-03-25T12:21:03.308Z,1007.28
2017-03-25T12:22:13.675Z,1007.25
2017-03-25T12:23:24.016Z,1007.2
2017-03-25T12:24:34.472Z,1007.17
2017-03-25T12:25:44.821Z,1007.12
2017-03-25T12:26:55.198Z,1007.15
2017-03-25T12:28:05.571Z,1007.16
2017-03-25T12:29:15.944Z,1007.13
2017-03-25T12:30:26.360Z,1007.2
2017-03-25T12:31:36.971Z,1007.18
2017-03-25T12:32:47.325Z,1007.1
2017-03-25T12:33:57.674Z,1007.08
2017-03-25T12:35:08.038Z,1007.09
2017-03-25T12:36:18.397Z,1007.03
2017-03-25T12:37:28.774Z,1006.94
2017-03-25T12:38:39.183Z,1006.98
2017-03-25T12:39:49.551Z,1006.97
2017-03-25T12:40:59.934Z,1006.94
2017-03-25T12:42:10.305Z,1006.9
2017-03-25T12:43:20.678Z,1006.88
2017-03-25T12:44:31.025Z,1006.84
2017-03-25T12:45:41.397Z,1006.8
2017-03-25T12:46:51.127Z,1006.8
2017-03-25T12:48:01.508Z,1006.8
2017-03-25T12:49:11.910Z,1006.78
2017-03-25T12:50:21.958Z,1006.76
2017-03-25T12:51:32.006Z,1006.76
2017-03-25T12:52:42.359Z,1006.68
2017-03-25T12:53:52.730Z,1006.68
2017-03-25T12:55:02.753Z,1006.68
2017-03-25T12:56:12.491Z,1006.66
2017-03-25T12:57:22.843Z,1006.63
2017-03-25T12:58:33.204Z,1006.61
2017-03-25T12:59:43.568Z,1006.63
2017-03-25T13:00:53.931Z,1006.57
2017-03-25T13:02:04.303Z,1006.5
2017-03-25T13:03:14.902Z,1006.49
2017-03-25T13:04:25.267Z,1006.43
2017-03-25T13:05:35.301Z,1006.44
2017-03-25T13:06:45.364Z,1006.36
2017-03-25T13:07:55.734Z,1006.44
2017-03-25T13:09:06.084Z,1006.47
2017-03-25T13:10:16.447Z,1006.41
2017-03-25T13:11:26.519Z,1006.42
2017-03-25T13:12:36.879Z,1006.42
2017-03-25T13:13:47.238Z,1006.39
2017-03-25T13:14:57.279Z,1006.37
2017-03-25T13:16:07.340Z,1006.38
2017-03-25T13:17:17.920Z,1006.34
2017-03-25T13:18:28.275Z,1006.34
2017-03-25T13:19:38.353Z,1006.33
2017-03-25T13:20:48.728Z,1006.27
2017-03-25T13:21:59.082Z,1006.22
2017-03-25T13:23:09.454Z,1006.17
2017-03-25T13:24:19.852Z,1006.21
2017-03-25T13:25:30.215Z,1006.19
2017-03-25T13:26:39.957Z,1006.18
2017-03-25T13:27:50.373Z,1006.14
2017-03-25T13:29:00.771Z,1006.15
2017-03-25T13:30:11.139Z,1006.1
2017-03-25T13:31:21.248Z,1006.09
2017-03-25T13:32:31.632Z,1006.07
2017-03-25T13:33:42.024Z,1006.05
2017-03-25T13:34:52.407Z,1006.02
2017-03-25T13:36:02.767Z,1006.04
2017-03-25T13:37:13.111Z,1006.08
2017-03-25T13:38:23.459Z,1006.02
2017-03-25T13:39:33.816Z,1006.02
2017-03-25T13:40:43.884Z,1006
2017-03-25T13:41:53.943Z,1005.98
2017-03-25T13:43:04.345Z,1006.01
2017-03-25T13:44:14.711Z,1005.96
2017-03-25T13:45:25.115Z,1005.97
2017-03-25T13:46:35.482Z,1005.93
2017-03-25T13:47:45.829Z,1005.91
2017-03-25T13:48:56.184Z,1005.93
2017-03-25T13:50:06.563Z,1005.93
2017-03-25T13:51:16.906Z,1005.93
2017-03-25T13:52:26.959Z,1005.9
2017-03-25T13:53:36.704Z,1005.89
2017-03-25T13:54:47.072Z,1005.9
2017-03-25T13:55:57.426Z,1005.86
2017-03-25T13:57:07.467Z,1005.9
2017-03-25T13:58:17.832Z,1005.9
2017-03-25T13:59:28.182Z,1005.91
2017-03-25T14:00:38.243Z,1005.85
2017-03-25T14:01:48.005Z,1005.86
2017-03-25T14:02:58.587Z,1005.84
2017-03-25T14:04:08.711Z,1005.83
2017-03-25T14:05:19.096Z,1005.79
2017-03-25T14:06:29.457Z,1005.8
2017-03-25T14:07:39.762Z,1005.75
2017-03-25T14:08:49.515Z,1005.78
2017-03-25T14:09:59.912Z,1005.74
2017-03-25T14:11:10.268Z,1005.74
2017-03-25T14:12:20.326Z,1005.8
2017-03-25T14:13:30.385Z,1005.75
2017-03-25T14:14:40.764Z,1005.71
2017-03-25T14:15:50.815Z,1005.67
2017-03-25T14:17:01.204Z,1005.68
2017-03-25T14:18:11.574Z,1005.66
2017-03-25T14:19:21.959Z,1005.65
2017-03-25T14:20:31.699Z,1005.67
2017-03-25T14:21:41.423Z,1005.6
2017-03-25T14:22:51.770Z,1005.63
2017-03-25T14:24:01.830Z,1005.61
2017-03-25T14:25:12.187Z,1005.6
2017-03-25T14:26:22.588Z,1005.58
2017-03-25T14:27:32.945Z,1005.55
2017-03-25T14:28:43.002Z,1005.49
2017-03-25T14:29:53.064Z,1005.44
2017-03-25T14:31:03.120Z,1005.41
2017-03-25T14:32:13.210Z,1005.39
2017-03-25T14:33:23.570Z,1005.41
2017-03-25T14:34:33.911Z,1005.31
2017-03-25T14:35:44.254Z,1005.3
2017-03-25T14:36:54.630Z,1005.25
2017-03-25T14:38:04.976Z,1005.24
2017-03-25T14:39:15.022Z,1005.29
2017-03-25T14:40:25.074Z,1005.2
2017-03-25T14:41:35.115Z,1005.24
2017-03-25T14:42:45.157Z,1005.2